Latest Weather Observations for Pirlangimpi

IDD60901

Issued at 7:41 pm CST Friday 22 May 2015 (issued every 10 minutes, with the page automatically refreshed every 10 minutes)

About weather observations | Map of Darwin area stations | Latest observations for Darwin area | Other Formats
Station Details ID: 014142 Name: PIRLANGIMPI AIRPORT Lat: -11.40 Lon: 130.42 Height: 18.3 m
Data from the previous 72 hours. | See also: Recent months at Pirlangimpi
Date/Time
CST
Tmp

°C
App
Tmp
°C
Dew
Point
°C
Rel
Hum
%
Delta-T

°C
Wind Press
QNH
hPa
Press
MSL
hPa
Rain
since
9 am
mm
Dir
 
Spd
km/h
Gust
km/h
Spd
kts
Gust
kts
22/07:30pm 25.1 29.7 22.4 85 1.8 NE 2 4 1 2 1014.2 1014.1 0.0
22/07:00pm 26.1 30.7 22.4 80 2.5 NE 2 4 1 2 1013.9 1013.8 0.0
22/06:30pm 27.1 31.7 22.5 76 3.1 NE 2 4 1 2 1013.7 1013.6 0.0
22/06:00pm 28.3 32.1 22.8 72 3.7 ENE 7 11 4 6 1013.5 1013.4 0.0
22/05:30pm 28.6 32.2 22.3 68 4.3 NE 7 11 4 6 1013.2 1013.1 0.0
22/05:00pm 29.5 32.2 22.2 65 4.9 ENE 11 17 6 9 1013.3 1013.2 0.0
22/04:30pm 30.2 31.7 21.3 59 6.0 ENE 15 24 8 13 1013.2 1013.1 0.0
22/04:00pm 32.6 35.5 22.4 55 7.0 NE 11 20 6 11 1012.7 1012.6 0.0
22/03:30pm 33.0 36.2 22.4 53 7.3 NE 9 15 5 8 1012.8 1012.7 0.0
22/03:00pm 32.2 35.2 22.0 55 6.9 NE 9 19 5 10 1012.9 1012.8 0.0
22/02:30pm 33.2 35.8 22.0 51 7.6 ENE 11 19 6 10 1013.0 1012.9 0.0
22/02:00pm 33.6 35.7 21.7 49 8.1 ENE 13 26 7 14 1013.1 1013.0 0.0
22/01:30pm 34.0 36.5 21.8 49 8.3 ENE 11 24 6 13 1013.3 1013.2 0.0
22/01:00pm 33.7 37.0 22.5 52 7.7 E 9 17 5 9 1013.8 1013.7 0.0
22/12:30pm 31.6 33.4 21.2 54 7.0 ESE 13 22 7 12 1014.1 1014.0 0.0
22/12:00pm 30.6 32.9 21.4 58 6.2 ESE 11 17 6 9 1014.4 1014.3 0.0
22/11:30am 30.2 33.0 21.6 60 5.8 E 9 15 5 8 1014.9 1014.8 0.0
22/11:00am 31.1 34.0 22.4 60 5.9 E 11 17 6 9 1015.3 1015.2 0.0
22/10:30am 30.5 33.1 22.7 63 5.3 ENE 13 22 7 12 1015.6 1015.5 0.0
22/10:00am 29.6 32.3 22.8 67 4.6 E 13 22 7 12 1015.6 1015.5 0.0
22/09:30am 28.3 31.5 23.0 73 3.6 E 11 19 6 10 1015.6 1015.5 0.0
22/09:00am 26.7 30.9 23.4 82 2.3 E 7 13 4 7 1015.6 1015.5 0.0
22/08:30am 25.3 30.1 23.5 90 1.2 ESE 4 7 2 4 1015.6 1015.5 0.0
22/08:00am 24.1 28.4 22.7 92 0.9 ESE 4 6 2 3 1015.5 1015.4 0.0
22/07:30am 23.4 27.5 22.2 93 0.8 ESE 4 4 2 2 1015.5 1015.4 0.0
22/07:00am 23.3 27.6 21.9 92 0.9 SE 2 4 1 2 1015.3 1015.2 0.0
22/06:30am 23.6 27.4 22.4 93 0.8 ESE 6 7 3 4 1015.0 1014.9 0.0
22/06:00am 23.4 28.0 22.4 94 0.7 SE 2 4 1 2 1014.9 1014.8 0.0
22/05:30am 23.5 27.7 22.5 94 0.7 SE 4 6 2 3 1015.0 1014.9 0.0
22/05:00am 23.5 28.4 22.3 93 0.8 CALM 0 0 0 0 1014.8 1014.7 0.0
22/04:30am 23.8 28.5 22.6 93 0.8 SSE 2 2 1 1 1014.9 1014.8 0.0
22/04:00am 23.9 28.7 22.9 94 0.7 SE 2 2 1 1 1015.0 1014.9 0.0
22/03:30am 24.0 28.9 23.0 94 0.7 SE 2 4 1 2 1014.9 1014.8 0.0
22/03:00am 23.9 28.6 22.7 93 0.8 ESE 2 4 1 2 1014.7 1014.6 0.0
22/02:30am 24.1 28.7 23.1 94 0.7 ESE 4 6 2 3 1014.9 1014.8 0.0
22/02:00am 23.9 28.2 22.7 93 0.8 SE 4 4 2 2 1015.0 1014.9 0.0
22/01:30am 23.6 27.7 22.2 92 0.9 SE 4 4 2 2 1015.2 1015.1 0.0
22/01:00am 23.6 28.5 22.4 93 0.8 CALM 0 0 0 0 1015.3 1015.2 0.0
22/12:30am 23.6 28.5 22.4 93 0.8 CALM 0 0 0 0 1015.3 1015.2 0.0
22/12:00am 23.7 28.6 22.3 92 0.9 CALM 0 0 0 0 1015.4 1015.3 0.0
 
Date/Time
CST
Tmp

°C
App
Tmp
°C
Dew
Point
°C
Rel
Hum
%
Delta-T

°C
Wind Press
QNH
hPa
Press
MSL
hPa
Rain
since
9 am
mm
Dir
 
Spd
km/h
Gust
km/h
Spd
kts
Gust
kts
21/11:30pm 23.6 28.4 22.2 92 0.9 CALM 0 0 0 0 1015.3 1015.2 0.0
21/11:00pm 23.8 28.6 22.1 90 1.1 CALM 0 0 0 0 1015.3 1015.2 0.0
21/10:30pm 24.0 28.9 22.3 90 1.1 CALM 0 0 0 0 1015.1 1015.0 0.0
21/10:00pm 24.1 29.0 22.4 90 1.1 CALM 0 0 0 0 1015.0 1014.9 0.0
21/09:30pm 24.4 29.5 22.7 90 1.1 CALM 0 0 0 0 1014.9 1014.8 0.0
21/09:00pm 24.7 29.9 22.8 89 1.3 CALM 0 0 0 0 1014.6 1014.5 0.0
21/08:30pm 24.9 30.1 22.8 88 1.4 CALM 0 0 0 0 1014.4 1014.3 0.0
21/08:00pm 25.4 30.6 22.9 86 1.7 CALM 0 0 0 0 1014.0 1013.9 0.0
21/07:30pm 25.9 30.8 23.0 84 2.0 N 2 4 1 2 1013.7 1013.6 0.0
21/07:00pm 26.7 31.7 23.2 81 2.4 NE 2 4 1 2 1013.7 1013.6 0.0
21/06:30pm 27.5 31.7 23.1 77 3.0 ENE 6 9 3 5 1013.5 1013.4 0.0
21/06:00pm 28.4 32.6 23.1 73 3.6 NE 6 13 3 7 1013.2 1013.1 0.0
21/05:30pm 29.4 33.6 23.1 69 4.3 NE 6 11 3 6 1013.0 1012.9 0.0
21/05:00pm 31.2 35.1 23.0 61 5.6 NE 7 15 4 8 1012.9 1012.8 0.0
21/04:30pm 32.5 36.7 23.4 58 6.3 NE 7 15 4 8 1012.5 1012.4 0.0
21/04:00pm 33.3 37.2 23.6 56 6.7 NE 9 19 5 10 1012.3 1012.2 0.0
21/03:30pm 33.8 37.5 23.2 54 7.3 NE 9 19 5 10 1012.4 1012.3 0.0
21/03:00pm 34.5 37.2 22.2 48 8.4 ENE 11 19 6 10 1012.7 1012.6 0.0
21/02:30pm 34.2 37.0 22.3 50 8.2 E 11 20 6 11 1013.0 1012.9 0.0
21/02:00pm 34.6 37.6 22.6 49 8.3 ENE 11 19 6 10 1013.5 1013.4 0.0
21/01:30pm 34.3 37.2 22.4 50 8.2 NE 11 20 6 11 1014.0 1013.9 0.0
21/01:00pm 34.0 36.7 21.4 47 8.5 ENE 9 20 5 11 1014.5 1014.4 0.0
21/12:30pm 34.0 37.1 22.1 50 8.1 E 9 15 5 8 1015.1 1015.0 0.0
21/12:00pm 33.1 36.9 22.8 54 7.1 E 7 15 4 8 1015.2 1015.1 0.0
21/11:30am 31.9 34.9 22.0 55 6.7 E 9 15 5 8 1015.6 1015.5 0.0
21/11:00am 31.8 34.3 22.5 58 6.4 ENE 13 20 7 11 1015.8 1015.7 0.0
21/10:30am 31.0 34.0 22.6 61 5.7 ENE 11 19 6 10 1016.1 1016.0 0.0
21/10:00am 29.6 32.8 22.3 65 5.0 E 9 17 5 9 1016.3 1016.2 0.0
21/09:30am 28.3 30.7 22.3 70 4.1 E 13 19 7 10 1016.2 1016.1 0.0
21/09:00am 26.6 30.9 23.7 84 2.0 E 7 13 4 7 1016.2 1016.1 0.0
21/08:30am 25.3 30.7 23.9 92 1.0 SE 2 4 1 2 1016.1 1016.0 0.0
21/08:00am 24.4 29.6 23.5 95 0.6 E 2 4 1 2 1015.8 1015.7 0.0
21/07:30am 23.9 28.4 22.9 94 0.7 ESE 4 6 2 3 1015.5 1015.4 0.0
21/07:00am 23.7 28.0 22.7 94 0.7 SE 4 6 2 3 1015.0 1014.9 0.0
21/06:30am 24.0 28.5 23.0 94 0.7 SE 4 6 2 3 1014.9 1014.8 0.0
21/06:00am 23.9 28.4 22.9 94 0.7 SE 4 6 2 3 1014.7 1014.6 0.0
21/05:30am 23.8 28.2 22.8 94 0.7 ESE 4 6 2 3 1014.7 1014.6 0.0
21/05:00am 23.8 28.2 22.8 94 0.7 SSE 4 6 2 3 1014.6 1014.5 0.0
21/04:30am 23.9 28.4 22.9 94 0.7 SE 4 6 2 3 1014.5 1014.4 0.0
21/04:00am 23.6 28.4 22.2 92 0.9 CALM 0 0 0 0 1014.4 1014.3 0.0
21/03:30am 23.7 28.7 22.5 93 0.8 CALM 0 0 0 0 1014.4 1014.3 0.0
21/03:00am 23.9 28.6 22.7 93 0.8 SSE 2 6 1 3 1014.5 1014.4 0.0
21/02:30am 23.6 28.5 22.4 93 0.8 CALM 0 0 0 0 1014.4 1014.3 0.0
21/02:00am 23.6 28.4 22.2 92 0.9 CALM 0 0 0 0 1014.6 1014.5 0.0
21/01:30am 23.7 28.2 22.3 92 0.9 NE 2 4 1 2 1014.7 1014.6 0.0
21/01:00am 24.0 28.7 22.6 92 0.9 NE 2 4 1 2 1015.0 1014.9 0.0
21/12:30am 24.3 29.4 22.7 91 1.1 CALM 0 2 0 1 1015.0 1014.9 0.0
21/12:00am 24.5 29.8 23.1 92 0.9 CALM 0 0 0 0 1015.2 1015.1 0.0
 
Date/Time
CST
Tmp

°C
App
Tmp
°C
Dew
Point
°C
Rel
Hum
%
Delta-T

°C
Wind Press
QNH
hPa
Press
MSL
hPa
Rain
since
9 am
mm
Dir
 
Spd
km/h
Gust
km/h
Spd
kts
Gust
kts
20/11:30pm 24.6 30.0 23.2 92 0.9 CALM 0 0 0 0 1015.4 1015.3 0.0
20/11:00pm 24.3 29.4 22.7 91 1.1 CALM 0 0 0 0 1015.5 1015.4 0.0
20/10:30pm 24.3 29.4 22.6 90 1.1 CALM 0 0 0 0 1015.3 1015.2 0.0
20/10:00pm 24.4 29.5 22.7 90 1.1 CALM 0 0 0 0 1015.1 1015.0 0.0
20/09:30pm 24.8 29.9 22.7 88 1.4 CALM 0 0 0 0 1015.1 1015.0 0.0
20/09:00pm 25.1 30.2 22.6 86 1.7 CALM 0 0 0 0 1015.0 1014.9 0.0
20/08:30pm 25.4 30.4 22.5 84 2.0 CALM 0 0 0 0 1014.5 1014.4 0.0
20/08:00pm 26.1 31.3 22.8 82 2.2 CALM 0 0 0 0 1014.4 1014.3 0.0
20/07:30pm 26.5 31.8 23.0 81 2.4 CALM 0 0 0 0 1014.1 1014.0 0.0
20/07:00pm 26.8 32.1 23.1 80 2.5 CALM 0 0 0 0 1013.8 1013.7 0.0
20/06:30pm 27.0 31.8 22.8 78 2.8 W 2 4 1 2 1013.7 1013.6 0.0
20/06:00pm 27.3 31.3 22.7 76 3.1 WSW 6 9 3 5 1013.5 1013.4 0.0
20/05:30pm 28.7 32.5 22.4 68 4.3 SW 6 11 3 6 1012.9 1012.8 0.0
20/05:00pm 30.8 33.7 23.2 64 5.2 NE 13 20 7 11 1012.3 1012.2 0.0
20/04:30pm 31.7 35.7 23.8 63 5.5 NNE 9 19 5 10 1011.9 1011.8 0.0
20/04:00pm 31.8 37.1 24.9 67 4.9 NNE 6 9 3 5 1012.0 1011.9 0.0
20/03:30pm 30.6 35.0 23.5 66 4.9 NNW 6 9 3 5 1012.1 1012.0 0.0
20/03:00pm 31.3 36.0 22.6 60 6.0 NNW 2 9 1 5 1012.3 1012.2 0.0
20/02:30pm 33.6 36.5 21.7 49 8.1 NE 9 17 5 9 1012.4 1012.3 0.0
20/02:00pm 34.6 38.3 22.3 48 8.4 NE 6 11 3 6 1012.8 1012.7 0.0
20/01:30pm 34.0 37.5 21.8 49 8.3 E 6 13 3 7 1013.2 1013.1 0.0
20/01:00pm 34.1 37.9 22.8 51 7.8 ENE 7 13 4 7 1013.7 1013.6 0.0
20/12:30pm 33.3 36.1 21.5 50 8.0 E 9 15 5 8 1014.3 1014.2 0.0
20/12:00pm 33.7 37.7 23.1 54 7.3 NE 7 13 4 7 1014.6 1014.5 0.0
20/11:30am 32.2 35.7 22.9 58 6.4 ESE 9 17 5 9 1015.2 1015.1 0.0
20/11:00am 31.8 34.9 22.8 59 6.2 ENE 11 17 6 9 1015.5 1015.4 0.0
20/10:30am 30.7 34.2 22.8 62 5.4 E 9 17 5 9 1015.6 1015.5 0.0
20/10:00am 29.9 33.3 23.3 67 4.5 E 11 17 6 9 1015.7 1015.6 0.0
20/09:30am 28.2 32.6 23.8 77 3.0 SE 7 15 4 8 1015.7 1015.6 0.0
20/09:00am 26.8 31.8 24.5 87 1.6 SE 6 11 3 6 1015.6 1015.5 0.0
20/08:30am 25.6 30.5 24.4 93 0.8 ESE 6 9 3 5 1015.2 1015.1 0.0
20/08:00am 24.6 29.6 23.9 96 0.5 ESE 4 7 2 4 1014.9 1014.8 0.0
20/07:30am 23.8 28.4 23.1 96 0.5 SE 4 6 2 3 1014.8 1014.7 0.0
20/07:00am 22.8 26.6 21.6 93 0.8 ESE 4 6 2 3 1014.5 1014.4 0.0
20/06:30am 22.7 26.8 21.5 93 0.8 SE 2 4 1 2 1014.3 1014.2 0.0
20/06:00am 22.8 27.2 21.4 92 0.9 CALM 0 0 0 0 1014.0 1013.9 0.0
20/05:30am 23.3 28.2 22.3 94 0.7 CALM 0 0 0 0 1013.8 1013.7 0.0
20/05:00am 23.2 28.0 22.2 94 0.7 CALM 0 0 0 0 1013.8 1013.7 0.0
20/04:30am 23.0 27.6 21.8 93 0.8 CALM 0 0 0 0 1013.8 1013.7 0.0
20/04:00am 23.2 27.8 21.8 92 0.9 CALM 0 0 0 0 1013.7 1013.6 0.0
20/03:30am 23.3 28.1 22.1 93 0.8 CALM 0 0 0 0 1013.8 1013.7 0.0
20/03:00am 23.1 27.6 21.5 91 1.1 CALM 0 0 0 0 1013.7 1013.6 0.0
20/02:30am 23.3 28.0 21.9 92 0.9 CALM 0 0 0 0 1013.9 1013.8 0.0
20/02:00am 23.3 28.0 21.9 92 0.9 CALM 0 0 0 0 1013.9 1013.8 0.0
20/01:30am 23.3 28.1 22.1 93 0.8 CALM 0 0 0 0 1014.1 1014.0 0.0
20/01:00am 23.3 28.0 21.9 92 0.9 CALM 0 0 0 0 1014.0 1013.9 0.0
20/12:30am 23.5 28.2 21.9 91 1.1 CALM 0 0 0 0 1013.9 1013.8 0.0
20/12:00am 23.7 28.7 22.5 93 0.8 CALM 0 0 0 0 1013.8 1013.7 0.0
 
Date/Time
CST
Tmp

°C
App
Tmp
°C
Dew
Point
°C
Rel
Hum
%
Delta-T

°C
Wind Press
QNH
hPa
Press
MSL
hPa
Rain
since
9 am
mm
Dir
 
Spd
km/h
Gust
km/h
Spd
kts
Gust
kts
19/11:30pm 23.9 29.0 22.7 93 0.8 CALM 0 0 0 0 1014.0 1013.9 0.0
19/11:00pm 24.0 28.7 22.6 92 0.9 NNE 2 4 1 2 1014.1 1014.0 0.0
19/10:30pm 24.1 28.7 22.5 91 1.1 NE 2 4 1 2 1013.9 1013.8 0.0
19/10:00pm 24.3 28.6 22.6 90 1.1 NE 4 4 2 2 1014.0 1013.9 0.0
19/09:30pm 24.3 28.6 22.6 90 1.1 NE 4 6 2 3 1013.9 1013.8 0.0
19/09:00pm 24.7 29.6 22.4 87 1.5 CALM 0 0 0 0 1013.7 1013.6 0.0
19/08:30pm 24.9 29.5 22.4 86 1.7 NE 2 6 1 3 1013.5 1013.4 0.0
19/08:00pm 25.0 28.4 21.7 82 2.2 ENE 6 7 3 4 1013.1 1013.0 0.0

Latest Capital City Observations: Canberra | Sydney | Melbourne | Brisbane | Adelaide | Perth | Hobart | Darwin

Other Formats:

Comma delimited format used in spreadsheet applications
http://www.bom.gov.au/fwo/IDD60901/IDD60901.94119.axf

JavaScript Object Notation format (JSON) in row-major order
http://www.bom.gov.au/fwo/IDD60901/IDD60901.94119.json